Barcarole — WDB9640 — position and weather

sailwx.info

Track history (hours):
 
Tides and Currents Weather Stations Pressure Air Temp Water Temp Dewpoint Dewpoint Depression Visibility Wind Speed Wind Dir Waves Ship Positions

Barcarole

Owner: Brown, Jeremy, Bellingham, WA. More information available from US FCC via Universal Licensing System and Coast Guard Vessel Documentation Center.

Last reported at 2017-Oct-16 23:55 UTC. Time now 2017-Nov-18 01:19 UTC.
Position N 48°37' W 122°44'.
Warning: this ship's position is 32 days out of date.

Type: Fishing. MMSI: 366980030.

Date/timePositionNaut miles runAvg speedWind from/ knotsBaromVisibWave heightAir tempDewpointWater temp
2017-Oct-16 23:55N 48°37' W 122°44'3 6.5
2017-Oct-16 23:30N 48°36' W 122°48'3 6.2
2017-Oct-16 22:58N 48°35' W 122°52'3 5.7
2017-Oct-16 22:30N 48°33' W 122°55'3 5.6
2017-Oct-16 22:00N 48°30' W 122°57'4 7.4
2017-Oct-16 21:30N 48°27' W 122°57'62 3.0
2017-Oct-16 00:51N 48°21' W 124°31'2 5.2
2017-Oct-16 00:31N 48°22' W 124°33'3 4.9
2017-Oct-16 00:00N 48°23' W 124°36'3 5.2
2017-Oct-15 23:31N 48°24' W 124°40'5 4.4
2017-Oct-15 22:19N 48°20' W 124°45'  
Track history (hours):
 
Tides and Currents Weather Stations Pressure Air Temp Water Temp Dewpoint Dewpoint Depression Visibility Wind Speed Wind Dir Waves Ship Positions

Barcarole

Owner: Brown, Jeremy, Bellingham, WA. More information available from US FCC via Universal Licensing System and Coast Guard Vessel Documentation Center.

Last reported at 2017-Oct-16 23:55 UTC. Time now 2017-Nov-18 01:19 UTC.
Position N 48°37' W 122°44'.
Warning: this ship's position is 32 days out of date.

Type: Fishing. MMSI: 366980030.

Date/timePositionNaut miles runAvg speedWind from/ knotsBaromVisibWave heightAir tempDewpointWater temp
2017-Oct-16 23:55N 48°37' W 122°44'3 6.5
2017-Oct-16 23:30N 48°36' W 122°48'3 6.2
2017-Oct-16 22:58N 48°35' W 122°52'3 5.7
2017-Oct-16 22:30N 48°33' W 122°55'3 5.6
2017-Oct-16 22:00N 48°30' W 122°57'4 7.4
2017-Oct-16 21:30N 48°27' W 122°57'62 3.0
2017-Oct-16 00:51N 48°21' W 124°31'2 5.2
2017-Oct-16 00:31N 48°22' W 124°33'3 4.9
2017-Oct-16 00:00N 48°23' W 124°36'3 5.2
2017-Oct-15 23:31N 48°24' W 124°40'5 4.4
2017-Oct-15 22:19N 48°20' W 124°45'  

Dump ship's entire track history